createdAt,value
2018-03-07T00:01:47.468Z,87.33
2018-03-07T00:04:13.211Z,87.70
2018-03-07T00:06:38.945Z,87.52
2018-03-07T00:09:04.689Z,87.46
2018-03-07T00:11:30.411Z,87.62
2018-03-07T00:13:56.142Z,87.73
2018-03-07T00:16:21.879Z,87.75
2018-03-07T00:18:47.606Z,87.68
2018-03-07T00:21:13.330Z,87.68
2018-03-07T00:23:39.079Z,87.67
2018-03-07T00:26:04.806Z,87.45
2018-03-07T00:28:30.557Z,87.40
2018-03-07T00:30:56.300Z,87.54
2018-03-07T00:33:22.025Z,87.48
2018-03-07T00:35:47.745Z,87.47
2018-03-07T00:38:13.465Z,87.63
2018-03-07T00:40:39.202Z,87.77
2018-03-07T00:43:04.922Z,87.73
2018-03-07T00:45:30.678Z,87.91
2018-03-07T00:47:56.405Z,88.06
2018-03-07T00:50:22.122Z,87.87
2018-03-07T00:52:47.866Z,87.52
2018-03-07T00:55:13.597Z,87.41
2018-03-07T00:57:39.326Z,87.91
2018-03-07T01:00:05.052Z,88.24
2018-03-07T01:02:30.768Z,88.56
2018-03-07T01:04:56.492Z,88.39
2018-03-07T01:07:22.209Z,88.47
2018-03-07T01:09:48.095Z,88.59
2018-03-07T01:12:13.833Z,88.43
2018-03-07T01:14:39.550Z,88.36
2018-03-07T01:17:05.282Z,88.11
2018-03-07T01:19:31.018Z,87.67
2018-03-07T01:21:56.746Z,87.38
2018-03-07T01:24:22.466Z,88.22
2018-03-07T01:26:48.198Z,88.45
2018-03-07T01:29:13.929Z,88.08
2018-03-07T01:31:39.657Z,88.01
2018-03-07T01:34:05.385Z,87.74
2018-03-07T01:36:31.125Z,88.05
2018-03-07T01:38:56.854Z,87.96
2018-03-07T01:41:22.589Z,87.82
2018-03-07T01:43:48.312Z,87.75
2018-03-07T01:46:14.045Z,87.41
2018-03-07T01:48:39.769Z,87.67
2018-03-07T01:51:05.499Z,87.49
2018-03-07T01:53:31.226Z,88.06
2018-03-07T01:55:56.982Z,88.20
2018-03-07T01:58:22.721Z,87.95
2018-03-07T02:00:48.441Z,87.92
2018-03-07T02:03:14.178Z,87.91
2018-03-07T02:05:39.902Z,88.10
2018-03-07T02:08:05.662Z,88.16
2018-03-07T02:10:33.190Z,88.12
2018-03-07T02:12:58.930Z,88.16
2018-03-07T02:15:24.655Z,88.21
2018-03-07T02:17:50.398Z,88.39
2018-03-07T02:20:16.116Z,88.16
2018-03-07T02:22:41.844Z,88.09
2018-03-07T02:25:07.570Z,88.16
2018-03-07T02:27:33.293Z,88.34
2018-03-07T02:29:59.010Z,88.26
2018-03-07T02:32:24.740Z,88.44
2018-03-07T02:34:50.454Z,88.37
2018-03-07T02:37:16.186Z,88.43
2018-03-07T02:39:41.910Z,88.61
2018-03-07T02:42:07.656Z,89.19
2018-03-07T02:44:33.393Z,89.38
2018-03-07T02:46:59.113Z,89.37
2018-03-07T02:49:24.856Z,89.47
2018-03-07T02:51:50.585Z,89.57
2018-03-07T02:54:16.318Z,89.55
2018-03-07T02:56:42.039Z,89.56
2018-03-07T02:59:07.770Z,89.50
2018-03-07T03:01:33.491Z,89.41
2018-03-07T03:03:59.233Z,89.37
2018-03-07T03:06:24.950Z,89.73
2018-03-07T03:08:50.682Z,89.84
2018-03-07T03:11:16.404Z,89.92
2018-03-07T03:13:42.158Z,90.11
2018-03-07T03:16:07.885Z,90.18
2018-03-07T03:18:33.613Z,90.35
2018-03-07T03:20:59.342Z,90.14
2018-03-07T03:23:25.077Z,90.25
2018-03-07T03:25:50.794Z,90.37
2018-03-07T03:28:16.534Z,90.52
2018-03-07T03:30:42.251Z,90.45
2018-03-07T03:33:08.000Z,90.52
2018-03-07T03:35:33.735Z,90.69
2018-03-07T03:37:59.457Z,90.75
2018-03-07T03:40:25.198Z,90.61
2018-03-07T03:42:50.929Z,90.82
2018-03-07T03:45:16.662Z,90.93
2018-03-07T03:47:42.390Z,90.96
2018-03-07T03:50:08.157Z,91.11
2018-03-07T03:52:33.888Z,91.19
2018-03-07T03:54:59.626Z,91.36
2018-03-07T03:57:25.337Z,91.46
2018-03-07T03:59:51.073Z,91.52
2018-03-07T04:02:16.799Z,91.50
2018-03-07T04:04:42.518Z,91.45
2018-03-07T04:07:08.241Z,91.34
2018-03-07T04:09:33.969Z,91.33
2018-03-07T04:11:59.706Z,91.26
2018-03-07T04:14:25.450Z,91.24
2018-03-07T04:16:51.190Z,91.21
2018-03-07T04:19:16.950Z,91.18
2018-03-07T04:21:42.691Z,91.14
2018-03-07T04:24:08.431Z,91.27
2018-03-07T04:26:34.166Z,91.25
2018-03-07T04:28:59.922Z,91.28
2018-03-07T04:31:25.665Z,91.23
2018-03-07T04:33:51.410Z,91.21
2018-03-07T04:36:17.157Z,91.22
2018-03-07T04:38:42.889Z,91.30
2018-03-07T04:41:08.629Z,91.29
2018-03-07T04:43:34.353Z,91.29
2018-03-07T04:46:00.088Z,91.28
2018-03-07T04:48:25.822Z,91.26
2018-03-07T04:50:51.566Z,91.23
2018-03-07T04:53:17.306Z,91.35
2018-03-07T04:55:43.054Z,91.49
2018-03-07T04:58:08.794Z,91.46
2018-03-07T05:00:34.535Z,91.67
2018-03-07T05:03:00.291Z,91.80
2018-03-07T05:05:26.042Z,91.85
2018-03-07T05:07:51.779Z,91.82
2018-03-07T05:10:17.533Z,91.83
2018-03-07T05:12:43.279Z,91.98
2018-03-07T05:15:09.005Z,91.97
2018-03-07T05:17:34.714Z,92.03
2018-03-07T05:20:00.438Z,91.99
2018-03-07T05:22:26.162Z,91.93
2018-03-07T05:24:51.877Z,91.97
2018-03-07T05:27:17.609Z,92.06
2018-03-07T05:29:43.322Z,91.99
2018-03-07T05:32:09.061Z,92.04
2018-03-07T05:34:34.774Z,92.04
2018-03-07T05:37:00.509Z,92.06
2018-03-07T05:39:26.233Z,92.08
2018-03-07T05:41:51.959Z,92.10
2018-03-07T05:44:17.686Z,91.95
2018-03-07T05:46:43.442Z,92.26
2018-03-07T05:49:09.158Z,92.36
2018-03-07T05:51:34.893Z,92.35
2018-03-07T05:54:00.605Z,92.47
2018-03-07T05:56:26.334Z,92.37
2018-03-07T05:58:52.045Z,92.43
2018-03-07T06:01:17.769Z,92.58
2018-03-07T06:03:43.482Z,92.67
2018-03-07T06:06:09.214Z,92.58
2018-03-07T06:08:34.934Z,92.71
2018-03-07T06:11:00.648Z,92.77
2018-03-07T06:13:26.385Z,92.75
2018-03-07T06:15:52.109Z,92.83
2018-03-07T06:18:17.835Z,92.74
2018-03-07T06:20:43.554Z,92.87
2018-03-07T06:23:09.278Z,93.02
2018-03-07T06:25:34.987Z,93.07
2018-03-07T06:28:00.706Z,93.07
2018-03-07T06:30:26.426Z,93.19
2018-03-07T06:32:52.149Z,93.38
2018-03-07T06:35:17.864Z,93.39
2018-03-07T06:37:43.594Z,93.54
2018-03-07T06:40:09.318Z,93.59
2018-03-07T06:42:35.054Z,93.61
2018-03-07T06:45:00.787Z,93.64
2018-03-07T06:47:26.522Z,93.58
2018-03-07T06:49:52.242Z,93.69
2018-03-07T06:52:17.969Z,93.67
2018-03-07T06:54:43.690Z,93.54
2018-03-07T06:57:09.422Z,93.78
2018-03-07T06:59:35.146Z,93.93
2018-03-07T07:02:00.886Z,93.95
2018-03-07T07:04:26.619Z,93.92
2018-03-07T07:06:52.366Z,93.97
2018-03-07T07:09:18.091Z,94.08
2018-03-07T07:11:43.814Z,94.09
2018-03-07T07:14:09.557Z,94.10
2018-03-07T07:16:35.295Z,94.23
2018-03-07T07:19:01.026Z,94.54
2018-03-07T07:21:26.758Z,94.54
2018-03-07T07:23:52.494Z,94.66
2018-03-07T07:26:18.219Z,94.81
2018-03-07T07:28:43.946Z,94.79
2018-03-07T07:31:09.671Z,94.87
2018-03-07T07:33:35.399Z,94.99
2018-03-07T07:36:01.127Z,95.12
2018-03-07T07:38:26.866Z,95.19
2018-03-07T07:40:52.586Z,95.16
2018-03-07T07:43:18.328Z,95.17
2018-03-07T07:45:44.046Z,95.30
2018-03-07T07:48:09.777Z,95.29
2018-03-07T07:50:35.505Z,95.27
2018-03-07T07:53:01.237Z,95.38
2018-03-07T07:55:26.977Z,95.35
2018-03-07T07:57:52.711Z,95.53
2018-03-07T08:00:18.434Z,95.51
2018-03-07T08:02:44.149Z,95.65
2018-03-07T08:05:09.886Z,95.80
2018-03-07T08:07:35.602Z,95.78
2018-03-07T08:10:01.339Z,95.81
2018-03-07T08:12:27.080Z,95.86
2018-03-07T08:14:52.821Z,95.89
2018-03-07T08:17:18.545Z,96.09
2018-03-07T08:19:44.270Z,96.08
2018-03-07T08:22:09.986Z,96.26
2018-03-07T08:24:35.709Z,96.23
2018-03-07T08:27:01.421Z,96.06
2018-03-07T08:29:27.186Z,96.13
2018-03-07T08:31:52.904Z,96.07
2018-03-07T08:34:19.425Z,95.89
2018-03-07T08:36:45.165Z,95.99
2018-03-07T08:39:10.882Z,96.09
2018-03-07T08:41:36.622Z,96.14
2018-03-07T08:44:02.368Z,96.28
2018-03-07T08:46:28.091Z,96.30
2018-03-07T08:48:53.815Z,96.37
2018-03-07T08:51:19.569Z,96.29
2018-03-07T08:53:45.293Z,96.17
2018-03-07T08:56:11.018Z,96.06
2018-03-07T08:58:36.738Z,95.94
2018-03-07T09:01:02.486Z,96.20
2018-03-07T09:03:28.227Z,96.22
2018-03-07T09:05:53.954Z,96.17
2018-03-07T09:08:19.670Z,96.10
2018-03-07T09:10:45.403Z,95.84
2018-03-07T09:13:11.132Z,95.98
2018-03-07T09:15:36.869Z,95.72
2018-03-07T09:18:02.590Z,95.74
2018-03-07T09:20:28.333Z,95.69
2018-03-07T09:22:54.054Z,95.93
2018-03-07T09:25:19.790Z,96.00
2018-03-07T09:27:45.518Z,96.04
2018-03-07T09:30:11.247Z,95.89
2018-03-07T09:32:36.969Z,95.69
2018-03-07T09:35:02.750Z,95.83
2018-03-07T09:37:28.436Z,95.85
2018-03-07T09:39:54.163Z,95.57
2018-03-07T09:42:19.898Z,96.02
2018-03-07T09:44:45.653Z,95.80
2018-03-07T09:47:11.390Z,95.44
2018-03-07T09:49:37.101Z,95.34
2018-03-07T09:52:02.842Z,95.23
2018-03-07T09:54:28.566Z,95.26
2018-03-07T09:56:54.295Z,95.13
2018-03-07T09:59:20.025Z,94.62
2018-03-07T10:01:45.761Z,94.88
2018-03-07T10:04:11.485Z,94.99
2018-03-07T10:06:37.231Z,95.99
2018-03-07T10:09:03.010Z,95.72
2018-03-07T10:11:28.747Z,95.96
2018-03-07T10:13:54.485Z,95.85
2018-03-07T10:16:20.225Z,95.69
2018-03-07T10:18:45.946Z,96.06
2018-03-07T10:21:11.666Z,95.68
2018-03-07T10:23:37.409Z,95.71
2018-03-07T10:26:03.135Z,95.92
2018-03-07T10:28:28.872Z,95.80
2018-03-07T10:30:54.591Z,95.57
2018-03-07T10:33:26.336Z,95.55
2018-03-07T10:35:52.054Z,95.92
2018-03-07T10:38:17.798Z,96.00
2018-03-07T10:40:43.535Z,96.19
2018-03-07T10:43:09.267Z,95.94
2018-03-07T10:45:35.005Z,96.14
2018-03-07T10:48:00.738Z,96.00
2018-03-07T10:50:26.458Z,96.05
2018-03-07T10:52:52.194Z,96.12
2018-03-07T10:55:17.923Z,96.21
2018-03-07T10:57:43.696Z,96.12
2018-03-07T11:00:09.438Z,95.77
2018-03-07T11:02:35.192Z,96.00
2018-03-07T11:05:00.895Z,96.14
2018-03-07T11:07:26.614Z,96.10
2018-03-07T11:09:52.361Z,96.28
2018-03-07T11:12:18.079Z,96.46
2018-03-07T11:14:43.805Z,96.16
2018-03-07T11:17:09.522Z,96.34
2018-03-07T11:19:35.253Z,95.90
2018-03-07T11:22:00.982Z,95.49
2018-03-07T11:24:26.718Z,95.51
2018-03-07T11:26:52.463Z,95.79
2018-03-07T11:29:18.214Z,95.44
2018-03-07T11:31:43.953Z,95.45
2018-03-07T11:34:09.695Z,95.58
2018-03-07T11:36:35.421Z,95.84
2018-03-07T11:39:01.158Z,95.97
2018-03-07T11:41:26.894Z,96.22
2018-03-07T11:43:52.650Z,96.00
2018-03-07T11:46:18.378Z,96.04
2018-03-07T11:48:44.093Z,96.24
2018-03-07T11:51:09.805Z,96.22
2018-03-07T11:53:35.533Z,95.78
2018-03-07T11:56:01.261Z,96.26
2018-03-07T11:58:26.986Z,96.31
2018-03-07T12:00:52.710Z,96.39
2018-03-07T12:03:18.429Z,96.24
2018-03-07T12:05:44.171Z,95.94
2018-03-07T12:08:09.886Z,96.07
2018-03-07T12:10:35.627Z,95.62
2018-03-07T12:13:01.362Z,95.78
2018-03-07T12:15:27.122Z,96.17
2018-03-07T12:17:52.850Z,95.60
2018-03-07T12:20:18.591Z,95.97
2018-03-07T12:22:44.326Z,95.94
2018-03-07T12:25:10.056Z,95.91
2018-03-07T12:27:35.819Z,95.98
2018-03-07T12:30:01.555Z,95.99
2018-03-07T12:32:27.281Z,95.70
2018-03-07T12:34:53.026Z,95.85
2018-03-07T12:37:18.741Z,95.73
2018-03-07T12:39:44.473Z,95.92
2018-03-07T12:42:10.214Z,96.21
2018-03-07T12:44:35.929Z,95.90
2018-03-07T12:47:01.684Z,95.68
2018-03-07T12:49:27.394Z,95.98
2018-03-07T12:51:53.130Z,95.72
2018-03-07T12:54:18.867Z,95.61
2018-03-07T12:56:44.606Z,95.83
2018-03-07T12:59:10.331Z,96.07
2018-03-07T13:01:36.062Z,95.39
2018-03-07T13:04:01.792Z,95.84
2018-03-07T13:06:27.525Z,96.08
2018-03-07T13:08:53.241Z,96.29
2018-03-07T13:11:18.977Z,96.16
2018-03-07T13:13:44.712Z,96.13
2018-03-07T13:16:10.453Z,96.20
2018-03-07T13:18:36.174Z,96.18
2018-03-07T13:21:01.902Z,96.14
2018-03-07T13:23:27.626Z,96.22
2018-03-07T13:25:53.364Z,96.44
2018-03-07T13:28:19.084Z,96.20
2018-03-07T13:30:44.804Z,96.35
2018-03-07T13:33:10.539Z,96.58
2018-03-07T13:35:36.275Z,96.43
2018-03-07T13:38:02.026Z,96.41
2018-03-07T13:40:27.754Z,96.44
2018-03-07T13:42:53.493Z,96.69
2018-03-07T13:45:19.214Z,96.64
2018-03-07T13:47:44.952Z,96.57
2018-03-07T13:50:10.702Z,96.66
2018-03-07T13:52:40.955Z,96.10
2018-03-07T13:55:08.149Z,96.28
2018-03-07T13:57:33.895Z,96.35
2018-03-07T13:59:59.635Z,96.02
2018-03-07T14:02:25.377Z,95.72
2018-03-07T14:04:51.132Z,96.37
2018-03-07T14:07:16.881Z,96.37
2018-03-07T14:09:42.687Z,95.98
2018-03-07T14:12:08.449Z,95.62
2018-03-07T14:14:34.201Z,95.87
2018-03-07T14:16:59.947Z,95.95
2018-03-07T14:19:25.677Z,96.00
2018-03-07T14:21:51.393Z,95.76
2018-03-07T14:24:17.128Z,95.61
2018-03-07T14:26:42.846Z,96.03
2018-03-07T14:29:08.594Z,96.04
2018-03-07T14:31:34.305Z,96.17
2018-03-07T14:34:00.031Z,95.83
2018-03-07T14:36:25.758Z,95.91
2018-03-07T14:38:51.515Z,96.24
2018-03-07T14:41:17.219Z,96.81
2018-03-07T14:43:42.929Z,96.52
2018-03-07T14:46:08.629Z,96.76
2018-03-07T14:48:34.359Z,96.64
2018-03-07T14:51:00.080Z,96.82
2018-03-07T14:53:25.819Z,97.12
2018-03-07T14:55:51.534Z,97.06
2018-03-07T14:58:17.274Z,97.15
2018-03-07T15:00:42.994Z,97.09
2018-03-07T15:03:08.714Z,97.22
2018-03-07T15:05:34.425Z,97.12
2018-03-07T15:08:00.185Z,97.12
2018-03-07T15:10:25.925Z,97.29
2018-03-07T15:12:51.681Z,97.39
2018-03-07T15:15:17.410Z,97.38
2018-03-07T15:17:43.134Z,97.38
2018-03-07T15:20:08.863Z,97.38
2018-03-07T15:22:34.590Z,97.40
2018-03-07T15:25:00.322Z,97.40
2018-03-07T15:27:26.048Z,97.59
2018-03-07T15:29:51.767Z,97.50
2018-03-07T15:32:17.502Z,97.66
2018-03-07T15:34:43.262Z,97.75
2018-03-07T15:37:09.152Z,97.54
2018-03-07T15:39:34.929Z,97.56
2018-03-07T15:42:00.704Z,97.65
2018-03-07T15:44:26.431Z,97.77
2018-03-07T15:46:52.362Z,97.77
2018-03-07T15:49:18.121Z,97.81
2018-03-07T15:51:43.915Z,97.79
2018-03-07T15:54:10.507Z,97.95
2018-03-07T15:56:36.320Z,97.97
2018-03-07T15:59:02.266Z,98.05
2018-03-07T16:01:28.192Z,98.18
2018-03-07T16:03:54.015Z,98.18
2018-03-07T16:06:20.888Z,98.05
2018-03-07T16:08:49.026Z,98.24
2018-03-07T16:11:14.942Z,97.88
2018-03-07T16:13:40.690Z,97.95
2018-03-07T16:16:06.438Z,97.84
2018-03-07T16:18:32.162Z,98.16
2018-03-07T16:20:57.915Z,98.22
2018-03-07T16:23:23.678Z,98.25
2018-03-07T16:25:49.432Z,98.28
2018-03-07T16:28:15.174Z,98.79
2018-03-07T16:30:41.004Z,98.54
2018-03-07T16:33:06.698Z,98.44
2018-03-07T16:35:32.451Z,98.56
2018-03-07T16:37:58.183Z,98.63
2018-03-07T16:40:23.962Z,98.43
2018-03-07T16:42:49.702Z,98.58
2018-03-07T16:45:15.441Z,98.64
2018-03-07T16:47:41.206Z,98.71
2018-03-07T16:50:06.932Z,98.69
2018-03-07T16:52:39.726Z,98.54
2018-03-07T16:55:05.452Z,98.69
2018-03-07T16:57:31.183Z,98.34
2018-03-07T16:59:56.904Z,98.41
2018-03-07T17:02:22.627Z,98.46
2018-03-07T17:04:48.423Z,98.51
2018-03-07T17:07:14.151Z,98.63
2018-03-07T17:09:39.865Z,98.63
2018-03-07T17:12:05.594Z,98.68
2018-03-07T17:14:31.322Z,98.74
2018-03-07T17:16:57.059Z,98.79
2018-03-07T17:19:22.774Z,98.85
2018-03-07T17:21:48.494Z,98.90
2018-03-07T17:24:14.206Z,98.90
2018-03-07T17:26:39.945Z,99.30
2018-03-07T17:29:05.671Z,98.97
2018-03-07T17:31:31.405Z,99.01
2018-03-07T17:33:57.110Z,98.90
2018-03-07T17:36:22.889Z,98.96
2018-03-07T17:38:48.623Z,99.01
2018-03-07T17:41:14.410Z,98.80
2018-03-07T17:43:40.213Z,98.77
2018-03-07T17:46:05.917Z,98.88
2018-03-07T17:48:31.642Z,98.96
2018-03-07T17:50:57.357Z,98.97
2018-03-07T17:53:23.097Z,99.04
2018-03-07T17:55:48.809Z,99.08
2018-03-07T17:58:14.537Z,99.36
2018-03-07T18:00:40.270Z,99.29
2018-03-07T18:03:06.003Z,99.09
2018-03-07T18:05:31.749Z,99.04
2018-03-07T18:07:57.486Z,99.24
2018-03-07T18:10:23.211Z,99.08
2018-03-07T18:12:48.973Z,99.13
2018-03-07T18:15:14.794Z,99.10
2018-03-07T18:17:40.542Z,98.93
2018-03-07T18:20:06.288Z,98.95
2018-03-07T18:22:32.058Z,98.94
2018-03-07T18:24:58.507Z,99.27
2018-03-07T18:27:24.245Z,99.27
2018-03-07T18:29:49.978Z,99.29
2018-03-07T18:32:15.779Z,99.12
2018-03-07T18:34:41.508Z,99.28
2018-03-07T18:37:07.246Z,99.08
2018-03-07T18:39:33.084Z,99.05
2018-03-07T18:41:58.842Z,98.95
2018-03-07T18:44:24.565Z,98.74
2018-03-07T18:46:50.294Z,98.75
2018-03-07T18:49:16.046Z,98.76
2018-03-07T18:51:41.778Z,98.81
2018-03-07T18:54:07.515Z,98.90
2018-03-07T18:56:33.267Z,98.93
2018-03-07T18:58:59.054Z,98.98
2018-03-07T19:01:24.804Z,98.99
2018-03-07T19:03:50.592Z,98.95
2018-03-07T19:06:16.297Z,98.93
2018-03-07T19:08:42.069Z,99.00
2018-03-07T19:11:07.819Z,99.09
2018-03-07T19:13:33.586Z,99.16
2018-03-07T19:15:59.360Z,99.17
2018-03-07T19:18:25.107Z,99.19
2018-03-07T19:20:50.844Z,99.22
2018-03-07T19:23:16.590Z,99.23
2018-03-07T19:25:42.322Z,99.27
2018-03-07T19:28:08.048Z,99.34
2018-03-07T19:30:33.786Z,99.37
2018-03-07T19:32:59.518Z,99.40
2018-03-07T19:35:25.258Z,99.44
2018-03-07T19:37:51.023Z,99.46
2018-03-07T19:40:16.778Z,99.48
2018-03-07T19:42:42.510Z,99.52
2018-03-07T19:45:08.242Z,99.58
2018-03-07T19:47:33.974Z,99.60
2018-03-07T19:49:59.717Z,99.62
2018-03-07T19:52:25.450Z,99.66
2018-03-07T19:54:51.211Z,99.65
2018-03-07T19:57:16.921Z,99.64
2018-03-07T19:59:42.660Z,99.68
2018-03-07T20:02:08.402Z,99.67
2018-03-07T20:04:35.563Z,99.68
2018-03-07T20:07:01.711Z,99.69
2018-03-07T20:09:28.807Z,99.71
2018-03-07T20:11:54.742Z,99.72
2018-03-07T20:14:20.694Z,99.71
2018-03-07T20:16:46.425Z,99.70
2018-03-07T20:19:12.245Z,99.66
2018-03-07T20:21:39.445Z,99.64
2018-03-07T20:24:05.539Z,99.64
2018-03-07T20:26:31.293Z,99.64
2018-03-07T20:28:57.014Z,99.66
2018-03-07T20:31:22.801Z,99.63
2018-03-07T20:33:48.747Z,99.62
2018-03-07T20:36:14.538Z,99.64
2018-03-07T20:38:40.317Z,99.64
2018-03-07T20:41:06.890Z,99.64
2018-03-07T20:43:32.622Z,99.63
2018-03-07T20:45:58.350Z,99.63
2018-03-07T20:48:24.151Z,99.62
2018-03-07T20:50:49.928Z,99.69
2018-03-07T20:53:15.657Z,99.76
2018-03-07T20:55:41.380Z,99.74
2018-03-07T20:58:07.105Z,99.68
2018-03-07T21:00:33.004Z,99.63
2018-03-07T21:02:58.732Z,99.82
2018-03-07T21:05:24.441Z,99.87
2018-03-07T21:07:50.177Z,99.80
2018-03-07T21:10:15.903Z,99.86
2018-03-07T21:12:42.024Z,99.81
2018-03-07T21:15:08.148Z,99.71
2018-03-07T21:17:34.237Z,99.69
2018-03-07T21:20:00.325Z,99.67
2018-03-07T21:22:26.461Z,99.46
2018-03-07T21:24:52.230Z,99.51
2018-03-07T21:27:18.352Z,99.43
2018-03-07T21:29:44.115Z,99.39
2018-03-07T21:32:10.270Z,99.34
2018-03-07T21:34:35.998Z,99.36
2018-03-07T21:37:02.050Z,99.35
2018-03-07T21:39:27.794Z,99.23
2018-03-07T21:41:53.522Z,99.24
2018-03-07T21:44:19.650Z,99.21
2018-03-07T21:46:45.606Z,99.18
2018-03-07T21:49:11.359Z,99.21
2018-03-07T21:51:37.493Z,99.14
2018-03-07T21:54:03.446Z,99.04
2018-03-07T21:56:29.220Z,98.97
2018-03-07T21:58:55.337Z,98.97
2018-03-07T22:01:21.431Z,99.01
2018-03-07T22:03:47.194Z,99.18
2018-03-07T22:06:12.917Z,99.10
2018-03-07T22:08:38.656Z,98.80
2018-03-07T22:11:04.380Z,98.52
2018-03-07T22:13:30.641Z,98.40
2018-03-07T22:15:56.670Z,98.57
2018-03-07T22:18:22.710Z,98.73
2018-03-07T22:20:48.846Z,98.94
2018-03-07T22:23:14.674Z,99.02
2018-03-07T22:25:40.401Z,99.08
2018-03-07T22:28:06.159Z,99.19
2018-03-07T22:30:31.907Z,99.32
2018-03-07T22:32:57.650Z,99.40
2018-03-07T22:35:23.389Z,99.18
2018-03-07T22:37:49.157Z,98.87
2018-03-07T22:40:14.914Z,98.55
2018-03-07T22:42:40.641Z,98.18
2018-03-07T22:45:06.390Z,97.92
2018-03-07T22:47:32.134Z,98.04
2018-03-07T22:49:57.886Z,98.24
2018-03-07T22:52:23.624Z,98.10
2018-03-07T22:54:49.391Z,98.39
2018-03-07T22:57:15.137Z,98.56
2018-03-07T22:59:42.291Z,98.73
2018-03-07T23:02:08.045Z,98.92
2018-03-07T23:04:33.787Z,99.01
2018-03-07T23:06:59.517Z,98.97
2018-03-07T23:09:25.358Z,99.08
2018-03-07T23:11:51.084Z,99.11
2018-03-07T23:14:16.809Z,99.14
2018-03-07T23:16:42.543Z,99.06
2018-03-07T23:19:08.317Z,99.09
2018-03-07T23:21:34.061Z,99.14
2018-03-07T23:23:59.777Z,99.20
2018-03-07T23:26:25.506Z,99.25
2018-03-07T23:28:51.218Z,99.35
2018-03-07T23:31:17.559Z,99.38
2018-03-07T23:33:43.305Z,99.38
2018-03-07T23:36:09.030Z,99.38
2018-03-07T23:38:34.755Z,99.39
2018-03-07T23:41:00.550Z,99.42
2018-03-07T23:43:26.270Z,99.43
2018-03-07T23:45:51.996Z,99.42
2018-03-07T23:48:18.111Z,99.41
2018-03-07T23:50:43.861Z,99.39
2018-03-07T23:53:09.598Z,99.41
2018-03-07T23:55:35.326Z,99.46
2018-03-07T23:58:01.074Z,99.50
